Flight Track Log - Related Links

Times and Time Zones

All times are in EDT time to prevent confusion due to time zone crossing. See the WIG1042 flight status page for this flight to view local times or setup timezone preferences in your user account.

Time Position Orientation Groundspeed Altitude Reporting Facility
EDT Latitude Longitude Course Direction KTS MPH feet Rate Location/Type
Fri 06:46:18 AM 42.9167 -71.4667 304° West 122 140 900  Level KA90
Fri 06:47:18 AM 42.9333 -71.5000 304° West 144 166 1,600 579 Climbing KA90
Fri 06:48:12 AM 42.9667 -71.5167 340° North 156 180 2,000 684 Climbing KA90
Fri 06:49:12 AM 43.0000 -71.5500 324° Northwest 148 170 2,900 750 Climbing KA90
Fri 06:50:12 AM 43.0333 -71.5833 324° Northwest 150 173 3,500 700 Climbing KA90
Fri 06:51:12 AM 43.0667 -71.6167 324° Northwest 151 174 4,300 810 Climbing KA90
Fri 06:52:18 AM 43.1167 -71.6500 334° Northwest 151 174 5,200 762 Climbing KA90
Fri 06:53:18 AM 43.1500 -71.7000 312° West 154 177 5,900 700 Climbing KA90
Fri 06:54:18 AM 43.1833 -71.7333 324° Northwest 158 182 6,600 673 Climbing KA90
Fri 06:54:56 AM 43.2028 -71.7622 313° West 167 192 7,000 612 Climbing Boston Center
Fri 06:55:56 AM 43.2281 -71.7906 321° Northwest 167 192 7,600 500 Climbing Boston Center
Fri 06:56:56 AM 43.2700 -71.8356 322° Northwest 175 201 8,000 200 Climbing Boston Center
Fri 06:57:56 AM 43.3078 -71.8753 323° Northwest 185 213 8,000  Level Boston Center
Fri 06:58:56 AM 43.3517 -71.9261 320° Northwest 190 219 8,000  Level Boston Center
Fri 06:59:56 AM 43.3914 -71.9686 322° Northwest 190 219 8,000  Level Boston Center
Fri 07:00:56 AM 43.4417 -72.0197 324° Northwest 195 224 8,000  Level Boston Center
Fri 07:01:56 AM 43.4897 -72.0567 331° Northwest 195 224 8,000  Level Boston Center
Fri 07:02:56 AM 43.5294 -72.1108 315° West 200 230 8,000  Level Boston Center
Fri 07:03:56 AM 43.5733 -72.1592 321° Northwest 200 230 8,000  Level Boston Center
Fri 07:04:56 AM 43.6172 -72.2050 323° Northwest 200 230 8,000  Level Boston Center
Fri 07:05:56 AM 43.6589 -72.2536 320° Northwest 200 230 8,000  Level Boston Center
Fri 07:06:56 AM 43.6986 -72.2964 322° Northwest 200 230 8,000  Level Boston Center
Fri 07:07:56 AM 43.7444 -72.3422 324° Northwest 200 230 8,000  Level Boston Center
Fri 07:08:56 AM 43.7842 -72.3969 315° West 200 230 8,000  Level Boston Center
Fri 07:09:56 AM 43.8258 -72.4400 323° Northwest 195 224 8,000  Level Boston Center
Fri 07:10:56 AM 43.8697 -72.4861 323° Northwest 195 224 8,000 -250 Level Boston Center
Fri 07:11:56 AM 43.9175 -72.5353 323° Northwest 195 224 7,500 -450 Descending Boston Center
Fri 07:12:56 AM 43.9550 -72.5669 329° Northwest 201 231 7,100 -200 Descending Boston Center
Fri 07:13:56 AM 44.0050 -72.6278 319° Northwest 206 237 7,100 -50 Level Boston Center
Fri 07:14:56 AM 44.0464 -72.6742 321° Northwest 201 231 7,000 -50 Descending Boston Center
Fri 07:15:56 AM 44.0944 -72.7147 329° Northwest 201 231 7,000  Level Boston Center
Fri 07:16:56 AM 44.1525 -72.7439 340° North 196 226 7,000 -50 Level Boston Center
Fri 07:17:56 AM 44.2047 -72.7731 338° Northwest 196 226 6,900 -50 Descending Boston Center
Fri 07:18:56 AM 44.2544 -72.8081 333° Northwest 196 226 6,900 -350 Level Boston Center
Fri 07:19:56 AM 44.3003 -72.8550 324° Northwest 203 234 6,200 -700 Descending Boston Center
Fri 07:20:56 AM 44.3478 -72.9075 322° Northwest 216 249 5,500 -409 Descending Boston Center
Fri 07:22:08 AM 44.3894 -72.9572 320° Northwest 210 242 5,300 -636 Descending Boston Center
Fri 07:23:08 AM 44.4453 -73.0042 329° Northwest 203 234 4,100 -950 Descending Boston Center
Fri 07:24:08 AM 44.4953 -73.0453 330° Northwest 213 245 3,400 -1,200 Descending Boston Center
Fri 07:25:08 AM 44.5031 -73.1125 279° West 176 203 1,700 -1,250 Descending Boston Center
Fri 07:26:08 AM 44.4986 -73.1706 264° West 159 183 900 -700 Descending Boston Center
Fri 07:27:08 AM 44.4736 -73.1586 161° South 90 104 300 -600 Descending Boston Center
Fri 07:29:00 AM 44.4667 -73.1500 144° Southeast  Level FlightAware Approximate
Fri 07:36:00 AM 44.4719 -73.1533 144° Southeast  Level Estimated

Login

Don't have an account? Register now (free) for customized features, flight alerts, and more!